Time;durP1;ratioP1;P1;durP2;ratioP2;P2;SDS_P1;SDS_P2;PMS_P1;PMS_P2;Temp;Humidity;BMP_temperature;BMP_pressure;BME280_temperature;BME280_humidity;BME280_pressure;Samples;Min_cycle;Max_cycle;Signal;HPM_P1;HPM_P2
2022/08/07 00:01:32;;;;;;;6.75;3.40;;;;;;;;;;5065152;28;20060;-65
2022/08/07 00:03:58;;;;;;;4.82;2.90;;;;;;;;;;5064734;28;20025;-63
2022/08/07 00:06:24;;;;;;;4.07;2.83;;;;;;;;;;5063722;28;20087;-65
2022/08/07 00:08:50;;;;;;;5.93;3.10;;;;;;;;;;5055864;28;20025;-64
2022/08/07 00:11:15;;;;;;;4.28;2.80;;;;;;;;;;5055632;28;20048;-65
2022/08/07 00:13:43;;;;;;;6.45;3.00;;;;;;;;;;5055549;28;20037;-64
2022/08/07 00:16:09;;;;;;;5.55;2.78;;;;;;;;;;5055697;28;20080;-64
2022/08/07 00:18:34;;;;;;;5.05;3.10;;;;;;;;;;5055677;28;20394;-63
2022/08/07 00:21:03;;;;;;;5.85;2.67;;;;;;;;;;5055362;28;20460;-65
2022/08/07 00:23:30;;;;;;;4.10;2.80;;;;;;;;;;5094790;28;20425;-65
2022/08/07 00:25:57;;;;;;;4.13;3.00;;;;;;;;;;5095696;28;20028;-65
2022/08/07 00:28:22;;;;;;;5.32;3.15;;;;;;;;;;5095649;28;20470;-64
2022/08/07 00:30:48;;;;;;;6.22;3.05;;;;;;;;;;5095615;28;20036;-63
2022/08/07 00:33:13;;;;;;;4.80;2.83;;;;;;;;;;5095697;28;20123;-64
2022/08/07 00:35:39;;;;;;;4.68;2.92;;;;;;;;;;5095615;28;20054;-64
2022/08/07 00:38:05;;;;;;;4.53;2.95;;;;;;;;;;5095526;28;20048;-64
2022/08/07 00:40:30;;;;;;;4.50;3.60;;;;;;;;;;5095429;28;20032;-63
2022/08/07 00:42:56;;;;;;;4.07;2.63;;;;;;;;;;5095309;28;20024;-64
2022/08/07 00:45:22;;;;;;;7.20;3.33;;;;;;;;;;5095432;28;20024;-64
2022/08/07 00:47:49;;;;;;;6.38;3.13;;;;;;;;;;5095496;28;20028;-64
2022/08/07 00:50:15;;;;;;;5.20;2.97;;;;;;;;;;5095337;28;20055;-63
2022/08/07 00:52:41;;;;;;;6.07;3.30;;;;;;;;;;5095256;28;20020;-64
2022/08/07 00:55:07;;;;;;;6.93;3.22;;;;;;;;;;5095210;28;20029;-64
2022/08/07 00:57:33;;;;;;;4.38;2.65;;;;;;;;;;5094977;28;20019;-63
2022/08/07 00:59:59;;;;;;;4.28;2.67;;;;;;;;;;5094962;28;20047;-63
2022/08/07 01:02:25;;;;;;;5.72;2.75;;;;;;;;;;5094980;28;20043;-63
2022/08/07 01:04:51;;;;;;;5.85;3.17;;;;;;;;;;5095125;28;20020;-63
2022/08/07 01:07:21;;;;;;;7.90;3.00;;;;;;;;;;5095228;28;20028;-64
2022/08/07 01:09:47;;;;;;;4.65;3.00;;;;;;;;;;5094897;28;20026;-64
2022/08/07 01:12:16;;;;;;;4.65;2.90;;;;;;;;;;5094679;28;20032;-65
2022/08/07 01:14:42;;;;;;;7.32;3.50;;;;;;;;;;5094856;28;20388;-64
2022/08/07 01:17:08;;;;;;;5.18;3.00;;;;;;;;;;5094791;28;20024;-64
2022/08/07 01:19:34;;;;;;;4.63;2.88;;;;;;;;;;5094539;28;20366;-65
2022/08/07 01:22:01;;;;;;;4.38;2.90;;;;;;;;;;5079393;28;20095;-64
2022/08/07 01:24:28;;;;;;;6.18;3.17;;;;;;;;;;5054416;28;20041;-64
2022/08/07 01:26:54;;;;;;;4.93;3.25;;;;;;;;;;5054146;28;20033;-63
2022/08/07 01:29:24;;;;;;;4.53;3.20;;;;;;;;;;5054399;28;20032;-65
2022/08/07 01:31:51;;;;;;;4.90;3.28;;;;;;;;;;5054170;28;20024;-63
2022/08/07 01:34:16;;;;;;;6.53;3.50;;;;;;;;;;5054339;28;20041;-63
2022/08/07 01:36:42;;;;;;;4.53;2.90;;;;;;;;;;5054090;28;20025;-65
2022/08/07 01:39:08;;;;;;;4.75;3.10;;;;;;;;;;5054185;28;20474;-64
2022/08/07 01:41:34;;;;;;;5.82;3.55;;;;;;;;;;5053758;28;20124;-64
2022/08/07 01:44:01;;;;;;;6.25;3.20;;;;;;;;;;5052759;28;20108;-64
2022/08/07 01:46:26;;;;;;;6.35;3.38;;;;;;;;;;5054115;28;20035;-63
2022/08/07 01:48:52;;;;;;;5.50;3.25;;;;;;;;;;5054142;28;20029;-63
2022/08/07 01:51:20;;;;;;;6.20;3.28;;;;;;;;;;5054024;28;20083;-63
2022/08/07 01:53:49;;;;;;;5.90;3.33;;;;;;;;;;5053957;28;20017;-63
2022/08/07 01:56:42;;;;;;;6.65;3.83;;;;;;;;;;5053590;28;20025;-63
2022/08/07 01:59:13;;;;;;;5.70;3.55;;;;;;;;;;5053955;28;20067;-63
2022/08/07 02:01:43;;;;;;;6.15;3.50;;;;;;;;;;5053639;28;20025;-63
2022/08/07 02:04:16;;;;;;;6.05;3.53;;;;;;;;;;5052441;28;20029;-64
2022/08/07 02:06:43;;;;;;;5.47;3.40;;;;;;;;;;5053564;28;20036;-64
2022/08/07 02:09:11;;;;;;;6.15;3.65;;;;;;;;;;5053416;28;20021;-64
2022/08/07 02:11:41;;;;;;;5.93;3.70;;;;;;;;;;5053030;28;20117;-65
2022/08/07 02:14:08;;;;;;;5.05;3.42;;;;;;;;;;5053518;28;20381;-64
2022/08/07 02:16:37;;;;;;;7.40;4.03;;;;;;;;;;5053563;28;20083;-63
2022/08/07 02:19:06;;;;;;;8.63;4.07;;;;;;;;;;5053382;28;20039;-64
2022/08/07 02:21:36;;;;;;;6.60;4.15;;;;;;;;;;5052868;28;20098;-64
2022/08/07 02:24:03;;;;;;;6.10;4.03;;;;;;;;;;5053164;28;20025;-63
2022/08/07 02:26:29;;;;;;;6.03;4.20;;;;;;;;;;5053384;28;20025;-65
2022/08/07 02:28:56;;;;;;;6.35;4.10;;;;;;;;;;5053290;28;20363;-64
2022/08/07 02:31:22;;;;;;;6.78;4.30;;;;;;;;;;5053069;28;20436;-64
2022/08/07 02:33:51;;;;;;;8.60;4.38;;;;;;;;;;5053177;28;20025;-64
2022/08/07 02:36:18;;;;;;;6.90;3.95;;;;;;;;;;5053203;28;20184;-63
2022/08/07 02:38:44;;;;;;;7.18;4.03;;;;;;;;;;5052771;28;20103;-64
2022/08/07 02:41:11;;;;;;;7.45;4.35;;;;;;;;;;5052896;28;20075;-65
2022/08/07 02:43:39;;;;;;;7.68;4.13;;;;;;;;;;5052964;28;20021;-64
2022/08/07 02:46:07;;;;;;;8.18;4.20;;;;;;;;;;5052880;28;20025;-64
2022/08/07 02:48:33;;;;;;;9.82;4.50;;;;;;;;;;5052767;28;20029;-65
2022/08/07 02:51:08;;;;;;;11.50;4.28;;;;;;;;;;5052779;28;20037;-63
2022/08/07 02:53:37;;;;;;;11.15;4.50;;;;;;;;;;5052690;28;20036;-64
2022/08/07 02:56:04;;;;;;;7.75;3.90;;;;;;;;;;5052699;28;20059;-64
2022/08/07 02:58:32;;;;;;;8.48;3.70;;;;;;;;;;5052754;28;20048;-64
2022/08/07 03:00:58;;;;;;;7.53;4.18;;;;;;;;;;5052513;28;20024;-63
2022/08/07 03:03:28;;;;;;;9.50;5.10;;;;;;;;;;5052637;28;20031;-64
2022/08/07 03:05:56;;;;;;;8.30;4.68;;;;;;;;;;5052454;28;20027;-65
2022/08/07 03:08:23;;;;;;;7.97;4.22;;;;;;;;;;5052556;28;20029;-64
2022/08/07 03:10:49;;;;;;;6.63;4.03;;;;;;;;;;5052528;28;20367;-64
2022/08/07 03:13:16;;;;;;;8.32;3.78;;;;;;;;;;5052640;28;20025;-64
2022/08/07 03:15:42;;;;;;;9.77;3.95;;;;;;;;;;5052679;28;20029;-64
2022/08/07 03:18:08;;;;;;;7.50;3.90;;;;;;;;;;5052509;28;20122;-63
2022/08/07 03:20:35;;;;;;;9.18;3.80;;;;;;;;;;5052371;28;20029;-63
2022/08/07 03:23:01;;;;;;;8.85;4.10;;;;;;;;;;5083587;28;20393;-63
2022/08/07 03:25:31;;;;;;;7.22;3.83;;;;;;;;;;5096599;28;20020;-64
2022/08/07 03:27:56;;;;;;;7.07;4.38;;;;;;;;;;5096955;28;20048;-64
2022/08/07 03:30:23;;;;;;;7.20;4.60;;;;;;;;;;5096957;28;20063;-63
2022/08/07 03:32:51;;;;;;;7.00;4.40;;;;;;;;;;5096756;28;20073;-64
2022/08/07 03:35:23;;;;;;;8.57;4.32;;;;;;;;;;5096732;28;20020;-63
2022/08/07 03:38:16;;;;;;;9.43;4.63;;;;;;;;;;5096538;28;20074;-64
2022/08/07 03:40:42;;;;;;;6.78;3.95;;;;;;;;;;5094750;28;20047;-64
2022/08/07 03:43:08;;;;;;;6.20;4.00;;;;;;;;;;5096698;28;20028;-64
2022/08/07 03:45:34;;;;;;;6.55;3.63;;;;;;;;;;5096267;28;20477;-63
2022/08/07 03:48:00;;;;;;;7.80;4.00;;;;;;;;;;5096446;28;20052;-64
2022/08/07 03:50:27;;;;;;;7.97;4.03;;;;;;;;;;5096488;28;20023;-63
2022/08/07 03:52:56;;;;;;;7.20;3.75;;;;;;;;;;5096290;28;20160;-65
2022/08/07 03:55:22;;;;;;;7.13;3.70;;;;;;;;;;5096279;28;20024;-64
2022/08/07 03:57:50;;;;;;;9.25;4.18;;;;;;;;;;5096312;28;20024;-64
2022/08/07 04:00:16;;;;;;;6.85;3.28;;;;;;;;;;5096189;28;20381;-63
2022/08/07 04:02:43;;;;;;;5.40;3.72;;;;;;;;;;5096109;28;20024;-63
2022/08/07 04:05:09;;;;;;;8.30;3.78;;;;;;;;;;5095868;28;20024;-67
2022/08/07 04:07:35;;;;;;;6.25;3.70;;;;;;;;;;5096223;28;20110;-63
2022/08/07 04:10:01;;;;;;;7.35;3.50;;;;;;;;;;5095957;28;20024;-63
2022/08/07 04:12:28;;;;;;;5.55;3.50;;;;;;;;;;5096121;28;20465;-64
2022/08/07 04:14:57;;;;;;;6.40;4.25;;;;;;;;;;5095974;28;20036;-65
2022/08/07 04:17:22;;;;;;;7.03;3.95;;;;;;;;;;5095789;28;20081;-63
2022/08/07 04:19:49;;;;;;;6.97;3.70;;;;;;;;;;5095699;28;20024;-63
2022/08/07 04:22:16;;;;;;;6.18;3.35;;;;;;;;;;5076362;28;20059;-64
2022/08/07 04:24:42;;;;;;;7.82;4.05;;;;;;;;;;5055571;28;20064;-64
2022/08/07 04:27:07;;;;;;;5.68;3.60;;;;;;;;;;5055665;28;20395;-65
2022/08/07 04:29:33;;;;;;;6.20;3.72;;;;;;;;;;5055426;28;20025;-63
2022/08/07 04:31:59;;;;;;;6.47;3.72;;;;;;;;;;5055285;28;20024;-64
2022/08/07 04:34:25;;;;;;;8.00;3.95;;;;;;;;;;5054619;28;20430;-63
2022/08/07 04:36:50;;;;;;;6.53;3.30;;;;;;;;;;5055265;28;20040;-63
2022/08/07 04:39:16;;;;;;;9.55;4.07;;;;;;;;;;5055095;28;20048;-62
2022/08/07 04:41:41;;;;;;;6.57;3.70;;;;;;;;;;5055142;28;20051;-63
2022/08/07 04:44:08;;;;;;;8.45;4.20;;;;;;;;;;5055011;28;20154;-63
2022/08/07 04:46:59;;;;;;;8.43;4.05;;;;;;;;;;5055065;28;20021;-64
2022/08/07 04:49:51;;;;;;;7.75;3.63;;;;;;;;;;5012898;28;20096;-63
2022/08/07 04:52:54;;;;;;;10.10;4.32;;;;;;;;;;5013261;28;20042;-62
2022/08/07 04:55:33;;;;;;;7.93;4.00;;;;;;;;;;5013362;28;20084;-64
2022/08/07 04:58:09;;;;;;;5.85;4.22;;;;;;;;;;5013162;28;20030;-65
2022/08/07 05:00:34;;;;;;;7.63;3.65;;;;;;;;;;5012862;28;20040;-64
2022/08/07 05:03:21;;;;;;;8.38;3.90;;;;;;;;;;5013028;28;20042;-64
2022/08/07 05:05:57;;;;;;;7.13;3.90;;;;;;;;;;5013111;28;20057;-65
2022/08/07 05:08:50;;;;;;;9.77;3.88;;;;;;;;;;5013103;28;20026;-65
2022/08/07 05:11:46;;;;;;;9.55;3.95;;;;;;;;;;5012879;28;20037;-63
2022/08/07 05:14:22;;;;;;;5.90;3.65;;;;;;;;;;4997271;28;20038;-63
2022/08/07 05:16:49;;;;;;;9.07;4.03;;;;;;;;;;5012658;28;20072;-63
2022/08/07 05:19:20;;;;;;;7.10;3.80;;;;;;;;;;5012225;28;20038;-64
2022/08/07 05:21:51;;;;;;;6.93;3.72;;;;;;;;;;5017398;28;20046;-63
2022/08/07 05:24:18;;;;;;;;;;;;;;;;;;5032772;28;20021;-64
2022/08/07 05:26:46;;;;;;;6.70;3.63;;;;;;;;;;5047856;28;19913;-63
2022/08/07 05:29:14;;;;;;;8.48;4.25;;;;;;;;;;5054238;28;20028;-64
2022/08/07 05:31:43;;;;;;;9.05;3.92;;;;;;;;;;5054067;28;20771;-64
2022/08/07 05:34:14;;;;;;;6.93;3.10;;;;;;;;;;5053813;28;20029;-64
2022/08/07 05:36:51;;;;;;;7.13;3.47;;;;;;;;;;5054040;28;20024;-64
2022/08/07 05:39:21;;;;;;;8.20;3.33;;;;;;;;;;5054045;28;20035;-66
2022/08/07 05:41:48;;;;;;;7.43;3.70;;;;;;;;;;5054008;28;20039;-64
2022/08/07 05:44:16;;;;;;;8.25;3.22;;;;;;;;;;5052760;28;20036;-63
2022/08/07 05:46:43;;;;;;;6.93;3.33;;;;;;;;;;5052741;28;20017;-63
2022/08/07 05:49:10;;;;;;;5.40;2.83;;;;;;;;;;5053570;28;20025;-64
2022/08/07 05:51:37;;;;;;;12.77;3.60;;;;;;;;;;5053535;28;20040;-63
2022/08/07 05:54:02;;;;;;;7.95;3.40;;;;;;;;;;5053732;28;20033;-64
2022/08/07 05:56:30;;;;;;;5.70;3.30;;;;;;;;;;5053748;28;20385;-64
2022/08/07 05:58:58;;;;;;;6.28;3.75;;;;;;;;;;5053696;28;20028;-65
2022/08/07 06:01:26;;;;;;;7.03;3.30;;;;;;;;;;5053309;28;20021;-63
2022/08/07 06:03:54;;;;;;;7.65;3.60;;;;;;;;;;5053632;28;20052;-64
2022/08/07 06:06:22;;;;;;;12.73;6.65;;;;;;;;;;5053561;28;20029;-63
2022/08/07 06:08:48;;;;;;;4.28;2.90;;;;;;;;;;5053244;28;20470;-65
2022/08/07 06:11:15;;;;;;;5.97;3.20;;;;;;;;;;5053405;28;20036;-65
2022/08/07 06:13:40;;;;;;;6.82;3.03;;;;;;;;;;5053523;28;20485;-64
2022/08/07 06:16:07;;;;;;;6.95;3.22;;;;;;;;;;5053140;28;20032;-63
2022/08/07 06:18:34;;;;;;;4.97;2.47;;;;;;;;;;5053182;28;20025;-64
2022/08/07 06:21:00;;;;;;;7.88;2.80;;;;;;;;;;5051585;28;20036;-65
2022/08/07 06:23:26;;;;;;;5.57;2.75;;;;;;;;;;5053150;28;20025;-65
2022/08/07 06:25:52;;;;;;;7.35;2.47;;;;;;;;;;5053206;28;20037;-64
2022/08/07 06:28:17;;;;;;;5.78;2.53;;;;;;;;;;5053062;28;20025;-64
2022/08/07 06:30:43;;;;;;;5.72;2.30;;;;;;;;;;5052819;28;20033;-64
2022/08/07 06:33:08;;;;;;;4.82;2.50;;;;;;;;;;5052948;28;20040;-64
2022/08/07 06:35:35;;;;;;;3.17;2.00;;;;;;;;;;5053022;28;20079;-63
2022/08/07 06:38:01;;;;;;;3.47;2.05;;;;;;;;;;5052851;28;20433;-64
2022/08/07 06:40:29;;;;;;;6.05;2.40;;;;;;;;;;5052792;28;20526;-64
2022/08/07 06:42:57;;;;;;;2.92;1.90;;;;;;;;;;5052793;28;20039;-63
2022/08/07 06:45:24;;;;;;;5.10;2.10;;;;;;;;;;5052585;28;20064;-63
2022/08/07 06:47:49;;;;;;;6.80;2.13;;;;;;;;;;5052786;28;20033;-65
2022/08/07 06:50:16;;;;;;;6.13;2.08;;;;;;;;;;5052629;28;20024;-64
2022/08/07 06:52:45;;;;;;;5.47;1.90;;;;;;;;;;5052688;28;20037;-64
2022/08/07 06:55:18;;;;;;;2.58;1.75;;;;;;;;;;5052835;28;20044;-64
2022/08/07 06:57:44;;;;;;;4.07;1.65;;;;;;;;;;5052410;28;20013;-63
2022/08/07 07:00:11;;;;;;;6.03;1.65;;;;;;;;;;5052228;28;20107;-65
2022/08/07 07:02:38;;;;;;;4.55;1.90;;;;;;;;;;5052578;28;20417;-65
2022/08/07 07:05:04;;;;;;;6.78;1.80;;;;;;;;;;5052574;28;20025;-63
2022/08/07 07:07:30;;;;;;;5.65;1.60;;;;;;;;;;5052401;28;20579;-65
2022/08/07 07:09:56;;;;;;;6.28;2.00;;;;;;;;;;5052542;28;20049;-64
2022/08/07 07:12:25;;;;;;;3.88;1.50;;;;;;;;;;5051296;28;20033;-65
2022/08/07 07:15:00;;;;;;;2.60;1.63;;;;;;;;;;5052322;28;20025;-65
2022/08/07 07:17:35;;;;;;;2.58;1.38;;;;;;;;;;5052332;28;20041;-63
2022/08/07 07:20:07;;;;;;;5.43;1.75;;;;;;;;;;5052267;28;20021;-64
2022/08/07 07:22:32;;;;;;;2.65;1.30;;;;;;;;;;5075892;28;20101;-63
2022/08/07 07:25:00;;;;;;;1.88;1.35;;;;;;;;;;5092618;28;20040;-65
2022/08/07 07:27:30;;;;;;;4.78;1.65;;;;;;;;;;5092529;28;20502;-63
2022/08/07 07:30:01;;;;;;;5.13;1.40;;;;;;;;;;5092324;28;20028;-64
2022/08/07 07:32:32;;;;;;;3.53;1.27;;;;;;;;;;5092513;28;20040;-64
2022/08/07 07:35:01;;;;;;;3.55;1.48;;;;;;;;;;5092515;28;20050;-66
2022/08/07 07:37:29;;;;;;;3.33;1.40;;;;;;;;;;5092530;28;20024;-65
2022/08/07 07:39:58;;;;;;;2.03;1.40;;;;;;;;;;5092392;28;20058;-65
2022/08/07 07:42:26;;;;;;;5.13;1.67;;;;;;;;;;5092371;28;20020;-64
2022/08/07 07:44:54;;;;;;;5.05;1.38;;;;;;;;;;5092213;28;20050;-65
2022/08/07 07:47:22;;;;;;;3.67;1.40;;;;;;;;;;5092237;28;20031;-64
2022/08/07 07:49:49;;;;;;;4.63;1.60;;;;;;;;;;5092084;28;20119;-65
2022/08/07 07:52:16;;;;;;;4.50;1.42;;;;;;;;;;5092328;28;20038;-64
2022/08/07 07:54:44;;;;;;;3.92;1.30;;;;;;;;;;5092344;28;20030;-64
2022/08/07 07:57:11;;;;;;;4.40;1.25;;;;;;;;;;5091974;28;20146;-64
2022/08/07 07:59:38;;;;;;;4.63;1.20;;;;;;;;;;5092152;28;20044;-64
2022/08/07 08:02:05;;;;;;;8.63;1.60;;;;;;;;;;5092121;28;20103;-65
2022/08/07 08:04:34;;;;;;;2.50;1.23;;;;;;;;;;5092173;28;20122;-66
2022/08/07 08:07:00;;;;;;;2.53;1.27;;;;;;;;;;5092031;28;20099;-65
2022/08/07 08:09:27;;;;;;;4.05;1.23;;;;;;;;;;5092034;28;20123;-65
2022/08/07 08:11:53;;;;;;;4.05;1.15;;;;;;;;;;5095589;28;20024;-65
2022/08/07 08:14:20;;;;;;;2.95;1.20;;;;;;;;;;5095992;28;20457;-65
2022/08/07 08:16:46;;;;;;;5.47;1.40;;;;;;;;;;5095601;28;20024;-65
2022/08/07 08:19:15;;;;;;;3.45;1.10;;;;;;;;;;5095742;28;20028;-65
2022/08/07 08:27:21;;;;;;;4.50;1.67;;;;;;;;;;5055114;28;20120;-65
2022/08/07 08:29:55;;;;;;;3.15;1.60;;;;;;;;;;5054024;28;20106;-66
2022/08/07 08:32:24;;;;;;;5.70;1.58;;;;;;;;;;5055304;28;20039;-66
2022/08/07 08:34:50;;;;;;;;;;;;;;;;;;5054229;28;20029;-65
2022/08/07 08:37:18;;;;;;;2.45;1.35;;;;;;;;;;5055276;28;19912;-65
2022/08/07 08:39:45;;;;;;;5.35;1.77;;;;;;;;;;5055182;28;20037;-66
2022/08/07 08:42:27;;;;;;;3.28;1.58;;;;;;;;;;5054919;28;20384;-65
2022/08/07 08:45:20;;;;;;;4.55;1.70;;;;;;;;;;5055267;28;20108;-64
2022/08/07 08:47:45;;;;;;;4.13;1.58;;;;;;;;;;5055055;28;20039;-65
2022/08/07 08:50:31;;;;;;;6.63;1.50;;;;;;;;;;5054804;28;20111;-66
2022/08/07 08:53:08;;;;;;;5.97;2.10;;;;;;;;;;5054972;28;20041;-65
2022/08/07 08:55:55;;;;;;;3.95;1.52;;;;;;;;;;5054656;28;20103;-66
2022/08/07 08:58:42;;;;;;;5.40;1.98;;;;;;;;;;5054864;28;20087;-66
2022/08/07 09:01:16;;;;;;;5.78;1.70;;;;;;;;;;5054801;28;20025;-66
2022/08/07 09:04:08;;;;;;;4.53;1.60;;;;;;;;;;5054680;28;20078;-66
2022/08/07 09:06:52;;;;;;;2.40;1.50;;;;;;;;;;5012703;28;20037;-66
2022/08/07 09:09:34;;;;;;;4.03;1.67;;;;;;;;;;5012632;28;20042;-65
2022/08/07 09:12:18;;;;;;;2.90;1.70;;;;;;;;;;5012470;28;20069;-65
2022/08/07 09:15:03;;;;;;;5.10;1.90;;;;;;;;;;5020961;28;20073;-66
2022/08/07 09:17:45;;;;;;;7.90;2.08;;;;;;;;;;5031601;28;20129;-65
2022/08/07 09:20:24;;;;;;;5.25;2.30;;;;;;;;;;5031335;28;20079;-65
2022/08/07 09:23:11;;;;;;;4.18;2.40;;;;;;;;;;5046029;28;20076;-65
2022/08/07 09:25:41;;;;;;;5.32;1.83;;;;;;;;;;5052131;28;20033;-65
2022/08/07 09:28:11;;;;;;;6.60;2.20;;;;;;;;;;5051809;28;20110;-64
2022/08/07 09:30:55;;;;;;;;;;;;;;;;;;5052527;28;20480;-65
2022/08/07 09:33:53;;;;;;;6.05;1.67;;;;;;;;;;5032073;28;19917;-65
2022/08/07 09:36:31;;;;;;;3.95;1.88;;;;;;;;;;5029558;28;20068;-65
2022/08/07 09:39:09;;;;;;;4.75;1.80;;;;;;;;;;5031271;28;20025;-65
2022/08/07 09:41:42;;;;;;;3.53;1.52;;;;;;;;;;5028129;28;20075;-64
2022/08/07 09:44:23;;;;;;;4.72;2.17;;;;;;;;;;5056868;28;20036;-64
2022/08/07 09:46:55;;;;;;;6.20;2.10;;;;;;;;;;5069631;28;20028;-63
2022/08/07 09:49:48;;;;;;;2.45;1.77;;;;;;;;;;5069582;28;20074;-64
2022/08/07 09:52:33;;;;;;;4.82;1.80;;;;;;;;;;5069976;28;20031;-65
2022/08/07 09:55:05;;;;;;;3.55;1.73;;;;;;;;;;5069361;28;20036;-64
2022/08/07 09:57:44;;;;;;;4.90;2.05;;;;;;;;;;5069279;28;20078;-63
2022/08/07 10:00:13;;;;;;;4.05;1.58;;;;;;;;;;5069451;28;20036;-64
2022/08/07 10:02:56;;;;;;;2.75;1.40;;;;;;;;;;5069446;28;20028;-65
2022/08/07 10:05:44;;;;;;;5.18;1.70;;;;;;;;;;5069504;28;20036;-64
2022/08/07 10:08:25;;;;;;;4.13;1.70;;;;;;;;;;5062441;28;20481;-64
2022/08/07 10:11:28;;;;;;;5.30;1.58;;;;;;;;;;5068905;28;20028;-63
2022/08/07 10:14:23;;;;;;;2.95;1.77;;;;;;;;;;5069697;28;20500;-63
2022/08/07 10:17:13;;;;;;;3.38;1.85;;;;;;;;;;5069052;28;20036;-63
2022/08/07 10:19:45;;;;;;;;;;;;;;;;;;5069682;28;20035;-63
2022/08/07 10:22:38;;;;;;;3.22;1.83;;;;;;;;;;5077543;28;19923;-65
2022/08/07 10:25:30;;;;;;;3.10;1.60;;;;;;;;;;5046615;28;20041;-65
2022/08/07 10:28:04;;;;;;;2.75;1.48;;;;;;;;;;5046970;28;20482;-64
2022/08/07 10:30:48;;;;;;;3.78;1.58;;;;;;;;;;5031181;28;20037;-64
2022/08/07 10:33:37;;;;;;;4.25;1.70;;;;;;;;;;5026282;28;20376;-64
2022/08/07 10:36:23;;;;;;;4.90;1.98;;;;;;;;;;5026820;28;20096;-64
2022/08/07 10:39:00;;;;;;;2.95;1.85;;;;;;;;;;5026529;28;20068;-65
2022/08/07 10:41:36;;;;;;;3.60;1.95;;;;;;;;;;5026470;28;20034;-64
2022/08/07 10:44:19;;;;;;;7.55;1.90;;;;;;;;;;5026343;28;20112;-65
2022/08/07 10:47:01;;;;;;;3.17;1.92;;;;;;;;;;5026546;28;20108;-65
2022/08/07 10:49:43;;;;;;;3.45;1.65;;;;;;;;;;5026592;28;20120;-65
2022/08/07 10:52:20;;;;;;;3.13;1.70;;;;;;;;;;5026411;28;20049;-65
2022/08/07 10:54:58;;;;;;;5.20;1.65;;;;;;;;;;5026429;28;20116;-64
2022/08/07 10:57:46;;;;;;;3.92;1.50;;;;;;;;;;5026531;28;20506;-64
2022/08/07 11:00:15;;;;;;;5.43;1.75;;;;;;;;;;5026046;28;20045;-65
2022/08/07 11:03:05;;;;;;;3.00;1.80;;;;;;;;;;5061549;28;20059;-63
2022/08/07 11:05:30;;;;;;;3.40;1.55;;;;;;;;;;5068301;28;20029;-64
2022/08/07 11:08:28;;;;;;;2.15;1.60;;;;;;;;;;5068183;28;20032;-65
2022/08/07 11:11:09;;;;;;;3.17;1.92;;;;;;;;;;5067833;28;20134;-64
2022/08/07 11:14:05;;;;;;;4.75;1.90;;;;;;;;;;5068365;28;20036;-65
2022/08/07 11:16:35;;;;;;;3.25;1.55;;;;;;;;;;5068398;28;20485;-64
2022/08/07 11:19:25;;;;;;;3.47;1.80;;;;;;;;;;5068507;28;20029;-64
2022/08/07 11:22:11;;;;;;;4.65;1.63;;;;;;;;;;5073756;28;20115;-65
2022/08/07 11:25:06;;;;;;;2.67;1.58;;;;;;;;;;5088428;28;20103;-64
2022/08/07 11:27:37;;;;;;;2.17;1.50;;;;;;;;;;5088757;28;20045;-64
2022/08/07 11:30:12;;;;;;;2.00;1.40;;;;;;;;;;5088698;28;20032;-64
2022/08/07 11:32:44;;;;;;;2.15;1.40;;;;;;;;;;5092357;28;20068;-65
2022/08/07 11:35:35;;;;;;;3.95;1.50;;;;;;;;;;5092377;28;20755;-65
2022/08/07 11:38:12;;;;;;;2.97;1.58;;;;;;;;;;5087306;28;20040;-65
2022/08/07 11:40:55;;;;;;;4.05;1.60;;;;;;;;;;5092246;28;20103;-66
2022/08/07 11:43:29;;;;;;;4.20;1.60;;;;;;;;;;5092337;28;20025;-65
2022/08/07 11:46:25;;;;;;;2.85;1.50;;;;;;;;;;5095328;28;20020;-64
2022/08/07 11:48:59;;;;;;;6.90;1.92;;;;;;;;;;5096165;28;20083;-65
2022/08/07 11:51:43;;;;;;;3.47;1.70;;;;;;;;;;5095999;28;20024;-66
2022/08/07 11:54:24;;;;;;;3.08;1.60;;;;;;;;;;5096339;28;20036;-65
2022/08/07 11:57:07;;;;;;;4.00;1.40;;;;;;;;;;5096213;28;20024;-64
2022/08/07 12:00:04;;;;;;;2.85;1.60;;;;;;;;;;5096250;28;20122;-64
2022/08/07 12:03:12;;;;;;;2.95;1.50;;;;;;;;;;5096251;28;20465;-63
2022/08/07 12:05:56;;;;;;;4.45;1.60;;;;;;;;;;5089999;28;20036;-64
2022/08/07 12:08:41;;;;;;;7.07;2.00;;;;;;;;;;5096028;28;20036;-64
2022/08/07 12:11:07;;;;;;;5.15;1.85;;;;;;;;;;5094580;28;20487;-64
2022/08/07 12:13:59;;;;;;;3.65;1.70;;;;;;;;;;5095745;28;20103;-65
2022/08/07 12:16:33;;;;;;;4.22;1.50;;;;;;;;;;5096010;28;20041;-65
2022/08/07 12:19:38;;;;;;;2.67;1.95;;;;;;;;;;5095495;28;20031;-65
2022/08/07 12:22:10;;;;;;;4.13;1.90;;;;;;;;;;5095500;28;20131;-65
2022/08/07 12:27:47;;;;;;;3.63;1.98;;;;;;;;;;5096019;28;20046;-63
2022/08/07 12:30:15;;;;;;;3.63;1.83;;;;;;;;;;5095552;28;20457;-63
2022/08/07 12:32:57;;;;;;;6.68;2.25;;;;;;;;;;5095171;28;20028;-65
2022/08/07 12:35:26;;;;;;;3.85;1.95;;;;;;;;;;5095508;28;20430;-63
2022/08/07 12:37:54;;;;;;;3.65;1.90;;;;;;;;;;5095530;28;20415;-65
2022/08/07 12:40:27;;;;;;;3.03;2.00;;;;;;;;;;5095204;28;20027;-65
2022/08/07 12:42:56;;;;;;;4.45;1.60;;;;;;;;;;5093753;28;20048;-64
2022/08/07 12:45:26;;;;;;;6.00;1.67;;;;;;;;;;5095267;28;20457;-64
2022/08/07 12:48:18;;;;;;;;;;;;;;;;;;5095556;28;20035;-64
2022/08/07 12:50:58;;;;;;;4.03;1.70;;;;;;;;;;5032746;28;19909;-63
2022/08/07 12:53:44;;;;;;;3.47;1.80;;;;;;;;;;5033038;28;20088;-65
2022/08/07 12:56:19;;;;;;;3.00;1.80;;;;;;;;;;5025238;28;20606;-65
2022/08/07 12:58:48;;;;;;;2.72;1.50;;;;;;;;;;5032516;28;20021;-65
2022/08/07 13:02:01;;;;;;;3.07;1.53;;;;;;;;;;5032585;28;20058;-65
2022/08/07 13:04:51;;;;;;;2.70;1.73;;;;;;;;;;5032782;28;20033;-64
2022/08/07 13:07:52;;;;;;;5.15;1.45;;;;;;;;;;5032070;28;20178;-64
2022/08/07 13:10:31;;;;;;;5.00;1.60;;;;;;;;;;4993001;28;20162;-65
2022/08/07 13:13:15;;;;;;;5.60;1.55;;;;;;;;;;4993110;28;20400;-65
2022/08/07 13:16:22;;;;;;;11.13;2.05;;;;;;;;;;4993012;28;20543;-65
2022/08/07 13:18:59;;;;;;;3.83;1.50;;;;;;;;;;4993070;28;20042;-65
2022/08/07 13:21:37;;;;;;;3.45;1.65;;;;;;;;;;4992412;28;20042;-63
2022/08/07 13:24:24;;;;;;;2.05;1.30;;;;;;;;;;4992891;28;20510;-65
2022/08/07 13:27:07;;;;;;;4.00;1.42;;;;;;;;;;4993015;28;20403;-65
2022/08/07 13:29:47;;;;;;;4.20;1.67;;;;;;;;;;4992782;28;20040;-64
2022/08/07 13:32:31;;;;;;;5.78;1.50;;;;;;;;;;4992628;28;20026;-67
2022/08/07 13:35:08;;;;;;;3.40;1.70;;;;;;;;;;4992800;28;20060;-65
2022/08/07 13:38:28;;;;;;;5.07;1.50;;;;;;;;;;4992770;28;20035;-65
2022/08/07 13:41:24;;;;;;;2.92;1.80;;;;;;;;;;4945202;29;20039;-65
2022/08/07 13:43:55;;;;;;;2.83;1.50;;;;;;;;;;4953824;29;20074;-64
2022/08/07 13:46:27;;;;;;;2.22;1.52;;;;;;;;;;4976109;28;20169;-65
2022/08/07 13:48:58;;;;;;;2.08;1.48;;;;;;;;;;5011951;28;20483;-65
2022/08/07 13:51:25;;;;;;;3.17;1.50;;;;;;;;;;5011959;28;20038;-65
2022/08/07 13:53:59;;;;;;;2.70;1.60;;;;;;;;;;5011966;28;20049;-63
2022/08/07 13:56:26;;;;;;;3.13;1.55;;;;;;;;;;5011978;28;20084;-65
2022/08/07 13:58:59;;;;;;;2.63;1.50;;;;;;;;;;5011826;28;20034;-63
2022/08/07 14:01:31;;;;;;;3.10;1.40;;;;;;;;;;5011593;28;20173;-65
2022/08/07 14:03:58;;;;;;;2.20;1.60;;;;;;;;;;5011661;28;20038;-65
2022/08/07 14:06:30;;;;;;;3.50;1.60;;;;;;;;;;5012014;28;20502;-63
2022/08/07 14:08:57;;;;;;;6.03;1.70;;;;;;;;;;5010819;28;20442;-64
2022/08/07 14:11:27;;;;;;;3.05;1.67;;;;;;;;;;5011475;28;20042;-65
2022/08/07 14:13:57;;;;;;;2.97;1.50;;;;;;;;;;5011608;28;20037;-64
2022/08/07 14:16:28;;;;;;;2.58;1.55;;;;;;;;;;5024617;28;20456;-65
2022/08/07 14:18:55;;;;;;;2.20;1.40;;;;;;;;;;5093245;28;20469;-65
2022/08/07 14:21:30;;;;;;;2.15;1.40;;;;;;;;;;5093068;28;20052;-65
2022/08/07 14:24:12;;;;;;;4.30;1.75;;;;;;;;;;5093582;28;20057;-65
2022/08/07 14:26:55;;;;;;;4.57;1.50;;;;;;;;;;5093348;28;20049;-65
2022/08/07 14:29:29;;;;;;;2.10;1.42;;;;;;;;;;5093035;28;20028;-65
2022/08/07 14:31:59;;;;;;;4.97;1.75;;;;;;;;;;5093469;28;20031;-65
2022/08/07 14:34:27;;;;;;;2.65;1.50;;;;;;;;;;5093334;28;20170;-64
2022/08/07 14:36:53;;;;;;;3.15;1.50;;;;;;;;;;5092993;28;20016;-64
2022/08/07 14:39:20;;;;;;;3.78;1.60;;;;;;;;;;5093082;28;20469;-66
2022/08/07 14:41:49;;;;;;;2.42;1.50;;;;;;;;;;5092891;28;20119;-65
2022/08/07 14:44:16;;;;;;;3.47;1.50;;;;;;;;;;5091636;28;20031;-64
2022/08/07 14:46:43;;;;;;;4.25;2.00;;;;;;;;;;5092963;28;20069;-64
2022/08/07 14:49:11;;;;;;;4.97;2.50;;;;;;;;;;5092890;28;20089;-65
2022/08/07 14:51:41;;;;;;;8.18;2.50;;;;;;;;;;5092732;28;20056;-63
2022/08/07 14:54:09;;;;;;;5.32;2.70;;;;;;;;;;5092963;28;20051;-65
2022/08/07 14:56:39;;;;;;;4.85;2.47;;;;;;;;;;5092840;28;20131;-64
2022/08/07 14:59:09;;;;;;;5.82;3.03;;;;;;;;;;5092558;28;20109;-65
2022/08/07 15:01:42;;;;;;;5.47;2.70;;;;;;;;;;5092697;28;20044;-63
2022/08/07 15:04:09;;;;;;;5.10;2.25;;;;;;;;;;5092723;28;20430;-64
2022/08/07 15:06:37;;;;;;;5.88;2.78;;;;;;;;;;5091365;28;20020;-65
2022/08/07 15:09:07;;;;;;;5.47;2.75;;;;;;;;;;5092692;28;20146;-65
2022/08/07 15:11:38;;;;;;;8.30;2.72;;;;;;;;;;5092529;28;20420;-65
2022/08/07 15:14:08;;;;;;;5.60;2.72;;;;;;;;;;5092451;28;20035;-65
2022/08/07 15:16:36;;;;;;;;;;;;;;;;;;5093284;28;20384;-64
2022/08/07 15:19:05;;;;;;;6.53;4.43;;;;;;;;;;5092358;28;20264;-65
2022/08/07 15:21:35;;;;;;;7.38;3.05;;;;;;;;;;5092272;28;20098;-64
2022/08/07 15:24:05;;;;;;;6.30;2.80;;;;;;;;;;5092556;28;20512;-65
2022/08/07 15:26:42;;;;;;;7.18;2.67;;;;;;;;;;5092574;28;20060;-64
2022/08/07 15:29:11;;;;;;;6.57;2.60;;;;;;;;;;5092426;28;20101;-64